TAF BGGH 050751Z 0508/0515 08012KT 9999 BKN035
TEMPO 0508/0515 DRSN SCT035
From batch tds/tafs/production/2024/2/5/h08_m00_tafs.cache.xml.gz
Issued (18 days ago)
Forecasts
0508/0515 8012KT 6+SM BKN3500

---
fcst_time_to: '2024-02-05T15:00:00Z'
sky_condition:
- sky_cover: BKN
  cloud_base_ft_agl: '3500'
wind_speed_kt: '12'
fcst_time_from: '2024-02-05T08:00:00Z'
wind_dir_degrees: '80'
visibility_statute_mi: 6+

TEMPO 0508/0515 SCT3500

---
wx_string: DRSN
fcst_time_to: '2024-02-05T15:00:00Z'
sky_condition:
- sky_cover: SCT
  cloud_base_ft_agl: '3500'
fcst_time_from: '2024-02-05T08:00:00Z'
change_indicator: TEMPO

talk